createdAt,value
2022-12-31T07:20:03.031Z,101260.56
2022-12-31T07:22:34.603Z,101248.38
2022-12-31T07:25:07.071Z,101190.59
2022-12-31T07:27:51.307Z,101272.75
2022-12-31T07:30:23.356Z,101239.63
2022-12-31T07:33:19.045Z,101253.63
2022-12-31T07:35:58.030Z,101246.13
2022-12-31T07:38:33.177Z,101275.88
2022-12-31T07:41:13.660Z,101284.13
2022-12-31T07:43:54.311Z,101268.13
2022-12-31T07:46:30.048Z,101264.81
2022-12-31T07:48:59.819Z,101250.91
2022-12-31T07:51:29.807Z,101187.72
2022-12-31T07:54:00.253Z,101263.78
2022-12-31T07:56:30.653Z,101258.56
2022-12-31T07:59:07.374Z,101250.63
2022-12-31T08:01:44.801Z,101272.56
2022-12-31T08:04:24.727Z,101281.16
2022-12-31T08:07:03.871Z,101261.84
2022-12-31T08:09:44.218Z,101279.94
2022-12-31T08:12:14.247Z,101262.38
2022-12-31T08:14:47.708Z,101288.78
2022-12-31T08:17:19.039Z,101196.88
2022-12-31T08:19:48.925Z,101290.06
2022-12-31T08:22:47.827Z,101264.56
2022-12-31T08:25:27.319Z,101279.28
2022-12-31T08:28:06.126Z,101265.91
2022-12-31T08:30:43.251Z,101284.13
2022-12-31T08:33:19.753Z,101265.41
2022-12-31T08:36:03.350Z,101276.94
2022-12-31T08:38:40.885Z,101274.28
2022-12-31T08:41:19.391Z,101235.47
2022-12-31T08:43:57.596Z,101264.28
2022-12-31T08:46:32.730Z,101255.81
2022-12-31T08:49:03.153Z,101234.28
2022-12-31T08:51:34.113Z,101246.81
2022-12-31T08:54:05.127Z,101260.84
2022-12-31T08:56:44.771Z,101245.25
2022-12-31T08:59:36.365Z,101232.88
2022-12-31T09:02:24.558Z,101165.03
2022-12-31T09:05:06.091Z,101235.38
2022-12-31T09:07:38.843Z,101235.06
2022-12-31T09:10:19.417Z,101213.44
2022-12-31T09:13:00.365Z,101239.25
2022-12-31T09:15:35.318Z,101239.25
2022-12-31T09:18:05.275Z,101242.97
2022-12-31T09:20:44.895Z,101226.75
2022-12-31T09:23:15.020Z,101232.53
2022-12-31T09:25:53.374Z,101220.88
2022-12-31T09:28:39.529Z,101194.13
2022-12-31T09:31:15.148Z,101216.44
2022-12-31T09:33:51.365Z,101195.06
2022-12-31T09:36:25.629Z,101217.84
2022-12-31T09:39:04.096Z,101200.41
2022-12-31T09:42:12.437Z,101225.91
2022-12-31T09:45:18.610Z,101213.28
2022-12-31T09:48:14.464Z,101114.22
2022-12-31T09:50:58.740Z,101166.59
2022-12-31T09:53:57.676Z,101206.50
2022-12-31T09:56:34.281Z,101183.63
2022-12-31T09:59:11.829Z,101189.19
2022-12-31T10:01:51.775Z,101181.84
2022-12-31T10:04:40.911Z,101187.81
2022-12-31T10:07:23.517Z,101185.88
2022-12-31T10:10:04.499Z,101174.91
2022-12-31T10:13:01.984Z,101161.97
2022-12-31T10:15:45.522Z,101139.34
2022-12-31T10:18:35.587Z,101109.72
2022-12-31T10:21:20.795Z,101117.81
2022-12-31T10:24:10.211Z,101087.66
2022-12-31T10:26:56.942Z,101097.84
2022-12-31T10:29:38.249Z,101124.78
2022-12-31T10:32:19.557Z,101056.91
2022-12-31T10:35:01.882Z,101134.69
2022-12-31T10:37:39.319Z,101108.31
2022-12-31T10:40:21.359Z,101095.59
2022-12-31T10:43:32.507Z,101058.81
2022-12-31T10:46:39.422Z,101115.03
2022-12-31T10:50:00.452Z,101118.78
2022-12-31T10:56:09.753Z,101099.88
2022-12-31T10:59:13.612Z,101098.94
2022-12-31T11:01:50.057Z,101099.25
2022-12-31T11:04:55.087Z,101075.09
2022-12-31T11:08:04.429Z,101090.50
2022-12-31T11:11:03.225Z,101087.63
2022-12-31T11:14:09.053Z,101087.84
2022-12-31T11:17:02.903Z,101081.16
2022-12-31T11:19:41.492Z,101095.81
2022-12-31T11:22:29.607Z,101045.16
2022-12-31T11:25:18.081Z,101097.38
2022-12-31T11:28:14.902Z,101070.88
2022-12-31T11:30:59.462Z,101089.81
2022-12-31T11:33:45.453Z,101079.28
2022-12-31T11:36:29.833Z,101060.69
2022-12-31T11:39:31.059Z,101045.91
2022-12-31T11:42:06.171Z,101077.78
2022-12-31T11:44:46.611Z,101069.63
2022-12-31T11:47:44.658Z,101002.66
2022-12-31T11:50:33.307Z,101051.94
2022-12-31T11:53:17.826Z,100976.34
2022-12-31T11:55:58.776Z,101046.28
2022-12-31T11:58:28.904Z,101023.97
2022-12-31T12:01:06.050Z,101061.19
2022-12-31T12:03:39.763Z,101011.84
2022-12-31T12:06:12.564Z,101061.13
2022-12-31T12:08:42.437Z,101017.31
2022-12-31T12:11:20.145Z,101050.63
2022-12-31T12:13:49.891Z,101046.50
2022-12-31T12:16:22.597Z,101049.50
2022-12-31T12:19:04.155Z,101060.41
2022-12-31T12:21:33.767Z,100980.53
2022-12-31T12:24:05.428Z,101042.75
2022-12-31T12:26:37.282Z,101029.59
2022-12-31T12:29:16.846Z,101022.78
2022-12-31T12:31:58.103Z,101011.53
2022-12-31T12:34:29.643Z,101006.97
2022-12-31T12:36:58.929Z,101009.06
2022-12-31T12:39:31.152Z,100997.28
2022-12-31T12:42:08.707Z,101017.44
2022-12-31T12:44:38.904Z,101027.53
2022-12-31T12:47:15.970Z,101025.06
2022-12-31T12:49:48.178Z,101033.72
2022-12-31T12:52:37.854Z,101012.38
2022-12-31T12:55:18.496Z,101040.06
2022-12-31T12:57:55.620Z,101031.41
2022-12-31T13:00:29.815Z,101008.47
2022-12-31T13:03:31.439Z,101035.88
2022-12-31T13:06:17.941Z,101033.91
2022-12-31T13:09:14.285Z,101043.06
2022-12-31T13:11:52.961Z,101031.97
2022-12-31T13:14:32.577Z,101039.41
2022-12-31T13:17:14.958Z,101041.44
2022-12-31T13:19:51.954Z,101008.22
2022-12-31T13:22:28.746Z,100923.25
2022-12-31T13:25:04.890Z,101015.88
2022-12-31T13:27:38.544Z,100995.69
2022-12-31T13:30:14.816Z,101020.56
2022-12-31T13:32:48.530Z,100987.47
2022-12-31T13:35:26.490Z,100981.59
2022-12-31T13:38:05.566Z,101008.22
2022-12-31T13:40:46.273Z,100913.47
2022-12-31T13:43:20.730Z,100958.53
2022-12-31T13:46:00.489Z,101008.06
2022-12-31T13:48:36.155Z,101009.91
2022-12-31T13:51:13.568Z,101005.66
2022-12-31T13:53:50.538Z,101022.97
2022-12-31T13:56:25.878Z,100994.47
2022-12-31T13:59:01.573Z,100900.13
2022-12-31T14:01:36.668Z,101016.19
2022-12-31T14:04:11.305Z,100858.25
2022-12-31T14:06:50.808Z,100985.78
2022-12-31T14:09:24.951Z,101022.44
2022-12-31T14:12:14.426Z,101019.22
2022-12-31T14:14:50.763Z,101015.97
2022-12-31T14:17:27.466Z,101024.38
2022-12-31T14:20:12.612Z,101015.38
2022-12-31T14:22:51.226Z,101001.91
2022-12-31T14:25:28.029Z,100837.91
2022-12-31T14:28:01.323Z,101003.19
2022-12-31T14:30:35.827Z,100741.72
2022-12-31T14:33:26.481Z,100967.47
2022-12-31T14:36:17.385Z,101002.16
2022-12-31T14:39:01.921Z,100997.56
2022-12-31T14:41:46.084Z,100989.75
2022-12-31T14:44:32.794Z,100979.25
2022-12-31T14:47:16.486Z,101002.25
2022-12-31T14:49:59.278Z,100985.00
2022-12-31T14:52:33.154Z,100936.81
2022-12-31T14:55:23.043Z,100922.38
2022-12-31T14:58:26.410Z,100990.19
2022-12-31T15:00:54.075Z,100976.09
2022-12-31T15:03:37.889Z,100856.25
2022-12-31T15:06:29.480Z,100985.97
2022-12-31T15:09:08.616Z,100973.69
2022-12-31T15:11:51.453Z,100994.94
2022-12-31T15:14:48.714Z,100991.06
2022-12-31T15:17:33.468Z,100985.59
2022-12-31T15:20:32.460Z,100977.88
2022-12-31T15:23:02.186Z,100990.19
2022-12-31T15:25:40.011Z,100987.56
2022-12-31T15:28:37.618Z,100991.06
2022-12-31T15:31:18.935Z,100978.28
2022-12-31T15:33:58.984Z,100967.41
2022-12-31T15:36:31.577Z,100985.75
2022-12-31T15:39:27.919Z,100988.94
2022-12-31T15:44:51.882Z,100967.91
2022-12-31T15:47:27.265Z,100985.03
2022-12-31T15:49:59.524Z,100994.50
2022-12-31T15:52:35.785Z,100991.25
2022-12-31T15:55:07.727Z,100919.66
2022-12-31T15:57:41.075Z,100909.34
2022-12-31T16:00:18.666Z,100984.34
2022-12-31T16:02:51.948Z,100983.34
2022-12-31T16:05:23.434Z,100964.03
2022-12-31T16:07:55.167Z,100977.88
2022-12-31T16:10:27.086Z,100970.94
2022-12-31T16:12:57.626Z,100974.81
2022-12-31T16:15:31.393Z,100928.09
2022-12-31T16:18:05.574Z,100964.69
2022-12-31T16:20:41.773Z,100954.25
2022-12-31T16:23:22.251Z,100951.84
2022-12-31T16:25:54.328Z,100943.53
2022-12-31T16:28:27.473Z,100953.41
2022-12-31T16:31:02.791Z,100957.69
2022-12-31T16:33:32.996Z,100927.69
2022-12-31T16:36:03.478Z,100903.34
2022-12-31T16:38:34.391Z,100907.47
2022-12-31T16:41:19.700Z,100935.91
2022-12-31T16:43:50.212Z,100937.47
2022-12-31T16:46:26.310Z,100941.06
2022-12-31T16:48:58.506Z,100929.81
2022-12-31T16:51:31.892Z,100946.53
2022-12-31T16:54:03.628Z,100939.69
2022-12-31T16:56:35.307Z,100892.78
2022-12-31T16:59:08.064Z,100933.53
2022-12-31T17:01:39.735Z,100942.78
2022-12-31T17:04:13.452Z,100898.94
2022-12-31T17:06:44.163Z,100933.25
2022-12-31T17:09:15.706Z,100855.66
2022-12-31T17:11:50.567Z,100936.28
2022-12-31T17:14:23.162Z,100898.50
2022-12-31T17:17:03.592Z,100942.59
2022-12-31T17:19:41.050Z,100931.34
2022-12-31T17:22:17.539Z,100834.50
2022-12-31T17:24:49.853Z,100940.03
2022-12-31T17:27:19.951Z,100931.28
2022-12-31T17:29:49.435Z,100917.00
2022-12-31T17:32:36.795Z,100895.69
2022-12-31T17:35:28.799Z,100910.56
2022-12-31T17:38:28.982Z,100927.34
2022-12-31T17:41:15.077Z,100923.06
2022-12-31T17:43:44.649Z,100903.03
2022-12-31T17:46:17.822Z,100893.28
2022-12-31T17:48:52.593Z,100892.41
2022-12-31T17:51:24.133Z,100914.00
2022-12-31T17:53:54.240Z,100815.91
2022-12-31T17:56:23.917Z,100909.88
2022-12-31T17:58:54.683Z,100935.66
2022-12-31T18:01:25.149Z,100921.03
2022-12-31T18:03:56.968Z,100934.19
2022-12-31T18:06:26.860Z,100937.72
2022-12-31T18:08:56.101Z,100934.53
2022-12-31T18:11:25.657Z,100947.31
2022-12-31T18:13:55.630Z,100820.03
2022-12-31T18:16:25.503Z,100899.94
2022-12-31T18:18:58.736Z,100925.13
2022-12-31T18:21:30.643Z,100896.34
2022-12-31T18:26:30.596Z,100963.00
2022-12-31T18:29:02.896Z,100955.09
2022-12-31T18:31:32.401Z,100967.13
2022-12-31T18:34:03.098Z,100956.50
2022-12-31T18:36:32.411Z,100961.81
2022-12-31T18:39:04.776Z,100955.03
2022-12-31T18:41:40.180Z,100966.91
2022-12-31T18:44:12.608Z,100963.06
2022-12-31T18:46:41.929Z,100955.69
2022-12-31T18:49:12.497Z,100946.53
2022-12-31T18:51:41.608Z,100930.78
2022-12-31T18:54:12.187Z,100935.41
2022-12-31T18:56:47.075Z,100920.00
2022-12-31T18:59:17.599Z,100914.50
2022-12-31T19:01:47.086Z,100896.03
2022-12-31T19:04:24.986Z,100905.09
2022-12-31T19:06:57.108Z,100895.94
2022-12-31T19:12:16.188Z,100893.06
2022-12-31T19:14:45.626Z,100862.97
2022-12-31T19:17:14.881Z,100888.13
2022-12-31T19:19:45.775Z,100889.47
2022-12-31T19:22:16.797Z,100849.41
2022-12-31T19:24:46.486Z,100869.97
2022-12-31T19:27:15.722Z,100878.34
2022-12-31T19:29:45.042Z,100836.41
2022-12-31T19:32:14.390Z,100889.19
2022-12-31T19:34:44.998Z,100895.31
2022-12-31T19:37:16.131Z,100906.00
2022-12-31T19:39:45.774Z,100906.78
2022-12-31T19:42:17.354Z,100915.00
2022-12-31T19:44:46.723Z,100792.75
2022-12-31T19:47:15.948Z,100893.34
2022-12-31T19:49:46.642Z,100911.06
2022-12-31T19:52:15.861Z,100896.13
2022-12-31T19:54:45.139Z,100900.91
2022-12-31T19:57:14.247Z,100873.16
2022-12-31T19:59:43.729Z,100889.31
2022-12-31T20:02:13.167Z,100857.75
2022-12-31T20:04:43.469Z,100873.38
2022-12-31T20:07:14.143Z,100872.41
2022-12-31T20:09:43.406Z,100868.03
2022-12-31T20:12:12.932Z,100884.19
2022-12-31T20:14:42.062Z,100881.81
2022-12-31T20:17:11.391Z,100887.59
2022-12-31T20:19:40.456Z,100886.56
2022-12-31T20:22:10.151Z,100892.22
2022-12-31T20:24:40.854Z,100890.84
2022-12-31T20:27:16.519Z,100892.94
2022-12-31T20:29:47.424Z,100895.22
2022-12-31T20:32:17.057Z,100886.28
2022-12-31T20:34:46.450Z,100894.94
2022-12-31T20:37:16.465Z,100900.63
2022-12-31T20:39:46.873Z,100878.22
2022-12-31T20:42:15.874Z,100899.56
2022-12-31T20:44:45.031Z,100899.22
2022-12-31T20:47:13.997Z,100903.41
2022-12-31T20:50:10.469Z,100888.59
2022-12-31T20:52:33.258Z,100895.69
2022-12-31T20:55:03.692Z,100890.84
2022-12-31T20:57:33.888Z,100844.88
2022-12-31T21:00:03.793Z,100883.91
2022-12-31T21:02:42.125Z,100862.16
2022-12-31T21:05:12.324Z,100873.66
2022-12-31T21:07:41.796Z,100862.06
2022-12-31T21:10:12.546Z,100849.59
2022-12-31T21:12:43.713Z,100881.53
2022-12-31T21:15:13.647Z,100835.91
2022-12-31T21:17:42.756Z,100879.03
2022-12-31T21:20:12.681Z,100886.84
2022-12-31T21:22:41.706Z,100848.47
2022-12-31T21:25:13.426Z,100841.03
2022-12-31T21:27:42.825Z,100846.19
2022-12-31T21:30:20.569Z,100849.50
2022-12-31T21:32:50.122Z,100856.25
2022-12-31T21:38:09.212Z,100845.81
2022-12-31T21:40:39.686Z,100837.28
2022-12-31T21:43:09.062Z,100852.06
2022-12-31T21:45:38.735Z,100839.81
2022-12-31T21:48:25.106Z,100851.06
2022-12-31T21:50:56.767Z,100845.25
2022-12-31T21:53:34.144Z,100848.88
2022-12-31T21:56:11.493Z,100838.22
2022-12-31T21:58:43.078Z,100839.53
2022-12-31T22:01:35.413Z,100787.88
2022-12-31T22:04:04.846Z,100838.66
2022-12-31T22:06:37.148Z,100841.25
2022-12-31T22:09:06.253Z,100825.00
2022-12-31T22:11:36.648Z,100824.09
2022-12-31T22:14:05.938Z,100814.22
2022-12-31T22:16:35.296Z,100795.59
2022-12-31T22:19:04.729Z,100829.47
2022-12-31T22:21:34.183Z,100833.84
2022-12-31T22:24:03.679Z,100841.75
2022-12-31T22:26:33.477Z,100822.38
2022-12-31T22:29:03.813Z,100817.69
2022-12-31T22:31:32.805Z,100817.69
2022-12-31T22:34:02.120Z,100820.31
2022-12-31T22:36:31.261Z,100811.59
2022-12-31T22:39:00.688Z,100777.03
2022-12-31T22:41:30.117Z,100806.94
2022-12-31T22:44:04.089Z,100818.75
2022-12-31T22:46:36.383Z,100793.91
2022-12-31T22:49:05.985Z,100783.88
2022-12-31T22:51:54.690Z,100760.53
2022-12-31T22:54:24.939Z,100780.34
2022-12-31T22:56:54.073Z,100779.13
2022-12-31T22:59:24.103Z,100789.50
2022-12-31T23:01:54.532Z,100785.97
2022-12-31T23:04:23.656Z,100803.47
2022-12-31T23:06:53.063Z,100818.19
2022-12-31T23:09:40.457Z,100800.41
2022-12-31T23:12:10.830Z,100779.94
2022-12-31T23:14:57.537Z,100805.16
2022-12-31T23:17:46.270Z,100817.66
2022-12-31T23:20:35.053Z,100817.03
2022-12-31T23:23:10.868Z,100776.66
2022-12-31T23:25:42.431Z,100760.06
2022-12-31T23:28:13.479Z,100793.25
2022-12-31T23:30:43.639Z,100758.28
2022-12-31T23:33:17.837Z,100796.06
2022-12-31T23:35:47.382Z,100783.88
2022-12-31T23:38:18.894Z,100745.41
2022-12-31T23:40:48.159Z,100754.63
2022-12-31T23:43:21.918Z,100788.97
2022-12-31T23:45:51.698Z,100785.34
2022-12-31T23:48:22.316Z,100781.81
2022-12-31T23:50:54.153Z,100758.78
2022-12-31T23:53:23.885Z,100787.09
2022-12-31T23:55:53.806Z,100770.84
2022-12-31T23:58:23.390Z,100726.25
